createdAt,value
2019-06-20T00:00:52.604Z,98.30
2019-06-20T00:03:20.200Z,97.90
2019-06-20T00:05:47.754Z,97.90
2019-06-20T00:08:15.315Z,97.70
2019-06-20T00:10:42.890Z,97.90
2019-06-20T00:13:10.558Z,97.80
2019-06-20T00:15:38.365Z,97.90
2019-06-20T00:18:05.951Z,98.10
2019-06-20T00:20:33.508Z,97.90
2019-06-20T00:23:01.385Z,97.90
2019-06-20T00:25:29.635Z,97.90
2019-06-20T00:27:57.204Z,97.70
2019-06-20T00:30:24.872Z,97.30
2019-06-20T00:32:52.435Z,97.70
2019-06-20T00:35:20.317Z,97.60
2019-06-20T00:37:48.154Z,97.30
2019-06-20T00:40:16.016Z,97.50
2019-06-20T00:42:43.891Z,97.50
2019-06-20T00:45:11.949Z,98.10
2019-06-20T00:47:39.824Z,97.80
2019-06-20T00:50:07.381Z,97.60
2019-06-20T00:52:35.247Z,98.60
2019-06-20T00:55:04.752Z,98.70
2019-06-20T00:57:32.727Z,98.70
2019-06-20T01:00:00.284Z,98.80
2019-06-20T01:02:27.924Z,98.80
2019-06-20T01:04:55.908Z,98.50
2019-06-20T01:07:23.459Z,98.40
2019-06-20T01:09:51.336Z,98.20
2019-06-20T01:12:18.897Z,98.20
2019-06-20T01:14:46.555Z,98.00
2019-06-20T01:17:14.487Z,97.80
2019-06-20T01:19:42.147Z,97.20
2019-06-20T01:22:09.690Z,97.00
2019-06-20T01:24:37.516Z,97.10
2019-06-20T01:27:05.379Z,97.00
2019-06-20T01:29:33.250Z,97.30
2019-06-20T01:32:01.526Z,97.10
2019-06-20T01:34:29.495Z,97.10
2019-06-20T01:36:57.460Z,97.30
2019-06-20T01:39:25.029Z,97.60
2019-06-20T01:41:52.583Z,97.90
2019-06-20T01:44:20.454Z,97.90
2019-06-20T01:46:48.321Z,98.00
2019-06-20T01:49:15.890Z,98.20
2019-06-20T01:51:43.783Z,98.40
2019-06-20T01:54:11.632Z,98.70
2019-06-20T01:56:39.576Z,99.10
2019-06-20T01:59:07.447Z,99.40
2019-06-20T02:01:35.244Z,99.50
2019-06-20T02:04:02.810Z,99.00
2019-06-20T02:06:30.363Z,99.20
2019-06-20T02:08:58.308Z,98.90
2019-06-20T02:11:25.863Z,99.00
2019-06-20T02:14:06.439Z,99.10
2019-06-20T02:16:23.028Z,98.70
2019-06-20T02:18:50.596Z,98.60
2019-06-20T02:21:18.150Z,98.60
2019-06-20T02:23:45.712Z,99.20
2019-06-20T02:26:13.263Z,99.10
2019-06-20T02:28:40.833Z,98.80
2019-06-20T02:31:08.383Z,99.10
2019-06-20T02:33:36.256Z,98.90
2019-06-20T02:36:03.806Z,99.50
2019-06-20T02:38:31.375Z,99.90
2019-06-20T02:40:58.945Z,99.90
2019-06-20T02:43:26.842Z,99.90
2019-06-20T02:45:54.707Z,99.90
2019-06-20T02:48:22.355Z,99.90
2019-06-20T02:50:50.017Z,99.40
2019-06-20T02:53:17.574Z,98.90
2019-06-20T02:55:45.245Z,98.80
2019-06-20T02:58:12.875Z,98.80
2019-06-20T03:00:42.072Z,98.70
2019-06-20T03:03:09.614Z,98.90
2019-06-20T03:05:37.216Z,98.80
2019-06-20T03:08:04.773Z,99.00
2019-06-20T03:10:32.348Z,98.50
2019-06-20T03:12:59.899Z,98.80
2019-06-20T03:15:27.460Z,98.30
2019-06-20T03:17:55.295Z,98.70
2019-06-20T03:20:22.916Z,98.90
2019-06-20T03:22:50.523Z,98.90
2019-06-20T03:25:18.955Z,98.80
2019-06-20T03:27:46.508Z,99.10
2019-06-20T03:30:14.069Z,98.70
2019-06-20T03:32:41.630Z,99.20
2019-06-20T03:35:09.453Z,99.40
2019-06-20T03:37:37.308Z,99.30
2019-06-20T03:40:05.692Z,99.40
2019-06-20T03:42:33.248Z,99.40
2019-06-20T03:45:02.422Z,99.60
2019-06-20T03:47:30.624Z,99.10
2019-06-20T03:49:58.205Z,98.80
2019-06-20T03:52:26.048Z,98.80
2019-06-20T03:54:53.612Z,99.10
2019-06-20T03:57:21.177Z,99.10
2019-06-20T03:59:49.039Z,99.30
2019-06-20T04:02:17.024Z,99.00
2019-06-20T04:04:44.600Z,98.90
2019-06-20T04:07:12.533Z,98.80
2019-06-20T04:09:40.103Z,98.70
2019-06-20T04:12:07.956Z,98.50
2019-06-20T04:14:35.823Z,98.70
2019-06-20T04:17:03.507Z,98.80
2019-06-20T04:19:31.093Z,99.40
2019-06-20T04:21:58.636Z,98.80
2019-06-20T04:24:28.031Z,98.50
2019-06-20T04:26:55.480Z,98.50
2019-06-20T04:29:23.332Z,99.10
2019-06-20T04:31:51.141Z,99.60
2019-06-20T04:34:19.065Z,99.90
2019-06-20T04:36:48.156Z,99.30
2019-06-20T04:39:19.486Z,99.40
2019-06-20T04:41:45.638Z,99.20
2019-06-20T04:44:13.604Z,99.40
2019-06-20T04:46:43.111Z,99.90
2019-06-20T04:49:11.804Z,99.20
2019-06-20T04:51:39.877Z,99.60
2019-06-20T04:54:07.741Z,99.60
2019-06-20T04:56:35.577Z,99.30
2019-06-20T04:59:03.194Z,99.90
2019-06-20T05:01:31.127Z,99.90
2019-06-20T05:03:58.711Z,99.90
2019-06-20T05:06:26.276Z,99.90
2019-06-20T05:08:53.828Z,99.90
2019-06-20T05:11:21.677Z,99.90
2019-06-20T05:13:49.260Z,99.70
2019-06-20T05:16:16.830Z,99.90
2019-06-20T05:18:44.665Z,99.90
2019-06-20T05:21:12.307Z,99.60
2019-06-20T05:23:40.187Z,99.50
2019-06-20T05:26:08.060Z,99.70
2019-06-20T05:28:35.928Z,99.80
2019-06-20T05:31:03.492Z,99.60
2019-06-20T05:33:31.067Z,99.70
2019-06-20T05:35:58.627Z,99.50
2019-06-20T05:38:26.775Z,99.30
2019-06-20T05:40:54.381Z,99.30
2019-06-20T05:43:22.210Z,99.00
2019-06-20T05:45:49.775Z,98.80
2019-06-20T05:48:17.365Z,99.00
2019-06-20T05:50:45.201Z,99.00
2019-06-20T05:53:12.894Z,99.00
2019-06-20T05:55:40.475Z,99.30
2019-06-20T05:58:08.278Z,98.90
2019-06-20T06:00:36.124Z,99.40
2019-06-20T06:03:06.985Z,98.90
2019-06-20T06:05:33.049Z,98.80
2019-06-20T06:08:00.671Z,97.90
2019-06-20T06:10:28.537Z,98.50
2019-06-20T06:12:56.951Z,99.00
2019-06-20T06:15:24.898Z,98.50
2019-06-20T06:17:52.756Z,98.80
2019-06-20T06:20:20.406Z,97.90
2019-06-20T06:22:47.953Z,98.60
2019-06-20T06:25:15.528Z,98.90
2019-06-20T06:27:43.419Z,98.60
2019-06-20T06:30:11.043Z,98.30
2019-06-20T06:32:40.508Z,98.60
2019-06-20T06:35:09.259Z,98.20
2019-06-20T06:37:37.135Z,98.20
2019-06-20T06:40:06.010Z,98.20
2019-06-20T06:42:33.569Z,98.30
2019-06-20T06:45:01.404Z,98.20
2019-06-20T06:47:29.400Z,98.20
2019-06-20T06:49:57.100Z,98.10
2019-06-20T06:52:24.660Z,98.20
2019-06-20T06:54:52.512Z,98.70
2019-06-20T06:57:20.087Z,98.70
2019-06-20T06:59:48.134Z,99.30
2019-06-20T07:02:15.689Z,98.80
2019-06-20T07:04:43.540Z,98.60
2019-06-20T07:07:11.421Z,98.20
2019-06-20T07:09:39.288Z,98.80
2019-06-20T07:12:06.856Z,98.20
2019-06-20T07:14:34.720Z,97.70
2019-06-20T07:17:02.580Z,97.30
2019-06-20T07:19:30.453Z,97.30
2019-06-20T07:21:58.167Z,96.90
2019-06-20T07:24:25.980Z,98.60
2019-06-20T07:26:53.841Z,99.20
2019-06-20T07:29:21.395Z,97.60
2019-06-20T07:31:48.987Z,98.20
2019-06-20T07:34:16.836Z,96.80
2019-06-20T07:36:44.416Z,97.90
2019-06-20T07:39:12.279Z,97.70
2019-06-20T07:41:39.900Z,95.80
2019-06-20T07:44:07.462Z,96.80
2019-06-20T07:46:35.073Z,97.10
2019-06-20T07:49:02.729Z,96.80
2019-06-20T07:51:30.304Z,96.50
2019-06-20T07:53:58.139Z,96.50
2019-06-20T07:56:25.947Z,96.00
2019-06-20T07:58:53.516Z,95.50
2019-06-20T08:01:21.152Z,94.10
2019-06-20T08:03:48.801Z,93.90
2019-06-20T08:06:16.651Z,94.60
2019-06-20T08:08:44.508Z,93.60
2019-06-20T08:11:12.091Z,93.70
2019-06-20T08:13:39.892Z,93.00
2019-06-20T08:16:07.800Z,93.40
2019-06-20T08:18:35.360Z,92.70
2019-06-20T08:21:02.956Z,92.20
2019-06-20T08:23:31.009Z,91.30
2019-06-20T08:25:59.301Z,92.10
2019-06-20T08:28:28.367Z,90.90
2019-06-20T08:30:56.106Z,92.40
2019-06-20T08:33:24.842Z,93.20
2019-06-20T08:35:52.719Z,93.10
2019-06-20T08:38:20.275Z,94.00
2019-06-20T08:40:48.059Z,93.60
2019-06-20T08:43:15.642Z,93.20
2019-06-20T08:45:43.536Z,92.20
2019-06-20T08:48:11.407Z,93.00
2019-06-20T08:50:39.723Z,92.90
2019-06-20T08:53:07.294Z,93.10
2019-06-20T08:55:35.018Z,93.90
2019-06-20T08:58:03.479Z,93.50
2019-06-20T09:00:31.651Z,94.10
2019-06-20T09:03:00.453Z,94.30
2019-06-20T09:05:30.697Z,93.80
2019-06-20T09:08:00.390Z,92.80
2019-06-20T09:10:29.596Z,94.00
2019-06-20T09:12:57.170Z,92.40
2019-06-20T09:15:24.741Z,92.60
2019-06-20T09:17:54.096Z,92.00
2019-06-20T09:20:21.635Z,90.40
2019-06-20T09:22:49.559Z,90.70
2019-06-20T09:25:17.111Z,90.80
2019-06-20T09:27:44.691Z,91.00
2019-06-20T09:30:12.615Z,92.20
2019-06-20T09:32:40.484Z,90.30
2019-06-20T09:35:08.031Z,90.00
2019-06-20T09:37:35.907Z,88.10
2019-06-20T09:40:04.515Z,87.60
2019-06-20T09:42:32.339Z,86.60
2019-06-20T09:45:00.128Z,84.60
2019-06-20T09:47:27.693Z,84.30
2019-06-20T09:49:57.176Z,84.10
2019-06-20T09:52:24.868Z,84.70
2019-06-20T09:54:53.868Z,88.60
2019-06-20T09:57:21.561Z,85.90
2019-06-20T10:00:03.099Z,84.30
2019-06-20T10:02:18.680Z,85.30
2019-06-20T10:04:47.507Z,85.70
2019-06-20T10:07:15.558Z,83.40
2019-06-20T10:09:43.185Z,81.50
2019-06-20T10:12:10.758Z,83.20
2019-06-20T10:14:38.316Z,83.60
2019-06-20T10:17:06.217Z,84.70
2019-06-20T10:19:33.768Z,86.70
2019-06-20T10:22:01.538Z,87.90
2019-06-20T10:24:29.091Z,86.80
2019-06-20T10:26:58.014Z,87.60
2019-06-20T10:29:25.922Z,88.20
2019-06-20T10:31:53.492Z,86.60
2019-06-20T10:34:21.348Z,86.00
2019-06-20T10:36:50.097Z,84.50
2019-06-20T10:39:17.742Z,87.30
2019-06-20T10:41:46.805Z,86.10
2019-06-20T10:44:15.172Z,85.00
2019-06-20T10:46:42.827Z,84.30
2019-06-20T10:49:11.689Z,84.10
2019-06-20T10:51:42.328Z,83.00
2019-06-20T10:54:10.589Z,82.20
2019-06-20T10:56:38.163Z,81.30
2019-06-20T10:59:06.076Z,83.70
2019-06-20T11:01:33.641Z,82.60
2019-06-20T11:04:01.234Z,83.60
2019-06-20T11:06:28.791Z,86.70
2019-06-20T11:08:56.355Z,83.20
2019-06-20T11:11:23.924Z,85.30
2019-06-20T11:13:51.835Z,85.30
2019-06-20T11:16:19.704Z,86.20
2019-06-20T11:18:48.703Z,85.30
2019-06-20T11:21:16.784Z,83.10
2019-06-20T11:23:45.249Z,84.30
2019-06-20T11:26:13.020Z,83.30
2019-06-20T11:28:41.422Z,83.40
2019-06-20T11:31:09.478Z,82.30
2019-06-20T11:33:38.640Z,81.80
2019-06-20T11:36:06.643Z,82.10
2019-06-20T11:38:34.461Z,82.60
2019-06-20T11:41:02.018Z,79.30
2019-06-20T11:43:29.924Z,79.50
2019-06-20T11:45:57.809Z,79.10
2019-06-20T11:48:25.539Z,83.00
2019-06-20T11:50:53.201Z,82.70
2019-06-20T11:53:23.255Z,82.30
2019-06-20T11:55:50.961Z,82.50
2019-06-20T11:58:18.855Z,83.70
2019-06-20T12:01:02.486Z,83.00
2019-06-20T12:03:15.777Z,83.90
2019-06-20T12:05:43.343Z,83.90
2019-06-20T12:08:12.197Z,81.90
2019-06-20T12:10:40.883Z,81.80
2019-06-20T12:13:09.039Z,81.00
2019-06-20T12:15:38.094Z,82.50
2019-06-20T12:18:06.411Z,85.00
2019-06-20T12:20:34.271Z,82.10
2019-06-20T12:23:02.143Z,79.80
2019-06-20T12:25:30.017Z,83.60
2019-06-20T12:27:57.991Z,83.70
2019-06-20T12:30:25.663Z,82.50
2019-06-20T12:32:53.520Z,81.60
2019-06-20T12:35:21.308Z,81.90
2019-06-20T12:37:50.041Z,83.80
2019-06-20T12:40:18.240Z,82.70
2019-06-20T12:42:46.789Z,83.30
2019-06-20T12:45:14.836Z,84.10
2019-06-20T12:47:43.684Z,83.40
2019-06-20T12:50:11.497Z,83.60
2019-06-20T12:52:40.732Z,85.00
2019-06-20T12:55:08.356Z,84.80
2019-06-20T12:57:38.395Z,84.30
2019-06-20T13:00:06.594Z,83.40
2019-06-20T13:02:34.565Z,84.50
2019-06-20T13:05:02.348Z,83.70
2019-06-20T13:07:30.239Z,83.30
2019-06-20T13:09:58.063Z,86.00
2019-06-20T13:12:25.867Z,84.70
2019-06-20T13:14:53.441Z,84.60
2019-06-20T13:17:21.464Z,84.90
2019-06-20T13:19:49.324Z,85.80
2019-06-20T13:22:16.883Z,86.00
2019-06-20T13:24:45.190Z,87.20
2019-06-20T13:27:12.911Z,87.90
2019-06-20T13:29:40.823Z,86.90
2019-06-20T13:32:08.515Z,87.90
2019-06-20T13:34:36.097Z,87.80
2019-06-20T13:37:03.719Z,87.80
2019-06-20T13:39:31.319Z,88.10
2019-06-20T13:41:59.212Z,87.70
2019-06-20T13:44:26.783Z,89.60
2019-06-20T13:46:54.340Z,88.60
2019-06-20T13:49:21.931Z,87.40
2019-06-20T13:51:50.253Z,85.80
2019-06-20T13:54:18.259Z,85.80
2019-06-20T13:56:47.230Z,84.10
2019-06-20T13:59:15.510Z,85.00
2019-06-20T14:01:44.072Z,85.30
2019-06-20T14:04:12.668Z,84.50
2019-06-20T14:06:42.092Z,84.20
2019-06-20T14:09:09.955Z,82.50
2019-06-20T14:11:37.809Z,82.40
2019-06-20T14:14:05.405Z,80.70
2019-06-20T14:16:33.083Z,80.50
2019-06-20T14:19:01.675Z,84.20
2019-06-20T14:21:29.391Z,81.40
2019-06-20T14:23:56.998Z,79.90
2019-06-20T14:26:24.627Z,76.10
2019-06-20T14:28:52.462Z,77.70
2019-06-20T14:31:20.024Z,77.80
2019-06-20T14:33:48.500Z,77.40
2019-06-20T14:36:16.588Z,77.30
2019-06-20T14:38:45.660Z,74.90
2019-06-20T14:41:13.847Z,77.60
2019-06-20T14:43:42.773Z,76.90
2019-06-20T14:46:11.008Z,76.30
2019-06-20T14:48:38.954Z,76.70
2019-06-20T14:51:07.058Z,75.90
2019-06-20T14:53:34.928Z,75.60
2019-06-20T14:56:02.506Z,74.20
2019-06-20T14:58:30.103Z,74.70
2019-06-20T15:00:57.671Z,73.50
2019-06-20T15:03:25.590Z,72.40
2019-06-20T15:05:54.560Z,74.60
2019-06-20T15:08:22.348Z,73.10
2019-06-20T15:10:50.361Z,73.20
2019-06-20T15:13:18.555Z,74.70
2019-06-20T15:15:47.733Z,75.50
2019-06-20T15:18:15.456Z,72.80
2019-06-20T15:20:43.312Z,72.30
2019-06-20T15:23:10.941Z,72.90
2019-06-20T15:25:38.752Z,73.60
2019-06-20T15:28:06.300Z,75.00
2019-06-20T15:30:33.871Z,74.90
2019-06-20T15:33:09.653Z,72.60
2019-06-20T15:35:31.011Z,70.30
2019-06-20T15:37:58.575Z,70.10
2019-06-20T15:40:26.135Z,72.00
2019-06-20T15:42:55.340Z,72.00
2019-06-20T15:45:22.994Z,69.80
2019-06-20T15:47:51.070Z,72.60
2019-06-20T15:50:19.133Z,73.10
2019-06-20T15:52:46.711Z,70.30
2019-06-20T15:55:16.127Z,69.30
2019-06-20T15:57:44.082Z,70.70
2019-06-20T16:00:11.714Z,72.60
2019-06-20T16:02:39.872Z,70.70
2019-06-20T16:05:07.975Z,70.60
2019-06-20T16:07:35.524Z,71.10
2019-06-20T16:10:04.216Z,71.50
2019-06-20T16:12:31.764Z,72.50
2019-06-20T16:14:59.654Z,73.50
2019-06-20T16:17:27.556Z,73.90
2019-06-20T16:19:55.505Z,74.50
2019-06-20T16:22:23.108Z,72.30
2019-06-20T16:24:50.675Z,73.90
2019-06-20T16:27:18.241Z,73.70
2019-06-20T16:29:45.801Z,69.10
2019-06-20T16:32:13.349Z,69.30
2019-06-20T16:34:41.247Z,67.00
2019-06-20T16:37:10.345Z,69.10
2019-06-20T16:39:38.380Z,65.50
2019-06-20T16:42:05.933Z,65.90
2019-06-20T16:44:33.741Z,63.30
2019-06-20T16:47:01.609Z,63.30
2019-06-20T16:49:29.448Z,63.40
2019-06-20T16:51:57.070Z,63.00
2019-06-20T16:54:24.655Z,63.80
2019-06-20T16:56:52.203Z,62.70
2019-06-20T16:59:19.856Z,64.60
2019-06-20T17:01:47.641Z,64.20
2019-06-20T17:04:15.197Z,64.70
2019-06-20T17:06:42.752Z,63.80
2019-06-20T17:09:10.324Z,65.10
2019-06-20T17:11:38.200Z,64.20
2019-06-20T17:14:06.200Z,65.50
2019-06-20T17:16:33.774Z,65.30
2019-06-20T17:19:01.325Z,66.70
2019-06-20T17:21:29.193Z,65.90
2019-06-20T17:23:56.752Z,66.90
2019-06-20T17:26:24.619Z,68.50
2019-06-20T17:28:52.475Z,69.10
2019-06-20T17:31:20.292Z,67.70
2019-06-20T17:33:57.061Z,68.10
2019-06-20T17:36:18.749Z,69.50
2019-06-20T17:38:46.544Z,69.60
2019-06-20T17:41:14.374Z,69.90
2019-06-20T17:43:42.183Z,70.00
2019-06-20T17:46:09.784Z,69.80
2019-06-20T17:48:37.681Z,70.90
2019-06-20T17:51:05.259Z,70.90
2019-06-20T17:53:33.099Z,70.60
2019-06-20T17:56:00.910Z,71.70
2019-06-20T17:58:28.730Z,71.70
2019-06-20T18:00:56.326Z,70.20
2019-06-20T18:03:23.891Z,71.70
2019-06-20T18:05:51.708Z,74.30
2019-06-20T18:08:19.577Z,71.00
2019-06-20T18:10:47.447Z,74.10
2019-06-20T18:13:15.027Z,74.20
2019-06-20T18:15:42.867Z,75.00
2019-06-20T18:18:10.424Z,77.10
2019-06-20T18:20:38.294Z,76.00
2019-06-20T18:23:06.166Z,77.10
2019-06-20T18:25:33.767Z,76.30
2019-06-20T18:28:01.593Z,77.90
2019-06-20T18:30:39.980Z,77.20
2019-06-20T18:33:07.868Z,78.40
2019-06-20T18:35:35.430Z,80.00
2019-06-20T18:38:03.301Z,80.00
2019-06-20T18:40:31.159Z,78.50
2019-06-20T18:42:59.041Z,79.00
2019-06-20T18:45:26.627Z,80.90
2019-06-20T18:47:54.196Z,80.00
2019-06-20T18:50:22.861Z,78.50
2019-06-20T18:52:52.571Z,78.20
2019-06-20T18:55:20.271Z,80.10
2019-06-20T18:57:48.108Z,81.50
2019-06-20T19:00:30.787Z,81.80
2019-06-20T19:02:46.588Z,82.60
2019-06-20T19:05:14.142Z,82.90
2019-06-20T19:07:41.724Z,84.60
2019-06-20T19:10:09.568Z,84.00
2019-06-20T19:12:37.142Z,83.20
2019-06-20T19:15:06.623Z,84.10
2019-06-20T19:17:34.490Z,85.10
2019-06-20T19:20:02.389Z,85.30
2019-06-20T19:22:29.930Z,86.00
2019-06-20T19:24:57.511Z,84.10
2019-06-20T19:27:25.168Z,85.20
2019-06-20T19:29:53.061Z,85.20
2019-06-20T19:32:20.840Z,86.90
2019-06-20T19:35:00.956Z,86.40
2019-06-20T19:37:17.943Z,87.50
2019-06-20T19:39:45.809Z,87.50
2019-06-20T19:42:13.424Z,87.60
2019-06-20T19:44:41.071Z,86.90
2019-06-20T19:47:09.307Z,86.20
2019-06-20T19:49:36.867Z,86.70
2019-06-20T19:52:04.439Z,86.20
2019-06-20T19:54:32.003Z,86.60
2019-06-20T19:56:59.560Z,86.60
2019-06-20T19:59:27.119Z,86.40
2019-06-20T20:01:54.975Z,87.50
2019-06-20T20:04:22.831Z,88.40
2019-06-20T20:06:50.380Z,88.40
2019-06-20T20:09:18.286Z,88.20
2019-06-20T20:11:45.830Z,87.90
2019-06-20T20:14:13.402Z,88.10
2019-06-20T20:16:41.249Z,88.90
2019-06-20T20:19:08.838Z,89.20
2019-06-20T20:21:36.383Z,89.00
2019-06-20T20:24:04.032Z,88.90
2019-06-20T20:26:31.579Z,89.30
2019-06-20T20:28:59.468Z,89.80
2019-06-20T20:31:27.039Z,90.00
2019-06-20T20:33:54.888Z,90.80
2019-06-20T20:36:25.163Z,90.90
2019-06-20T20:38:51.957Z,91.20
2019-06-20T20:41:19.917Z,91.50
2019-06-20T20:43:47.464Z,91.50
2019-06-20T20:46:15.343Z,91.40
2019-06-20T20:48:43.245Z,90.80
2019-06-20T20:51:10.818Z,90.70
2019-06-20T20:53:38.364Z,90.30
2019-06-20T20:56:05.933Z,90.60
2019-06-20T20:58:33.483Z,90.70
2019-06-20T21:01:02.689Z,90.50
2019-06-20T21:03:30.237Z,90.40
2019-06-20T21:05:57.839Z,90.50
2019-06-20T21:08:25.480Z,90.60
2019-06-20T21:10:53.131Z,90.20
2019-06-20T21:13:20.697Z,90.80
2019-06-20T21:15:48.267Z,91.20
2019-06-20T21:18:15.803Z,91.10
2019-06-20T21:20:43.368Z,90.80
2019-06-20T21:23:10.924Z,90.50
2019-06-20T21:25:38.492Z,90.40
2019-06-20T21:28:06.039Z,90.40
2019-06-20T21:30:33.627Z,90.80
2019-06-20T21:33:01.269Z,91.20
2019-06-20T21:35:28.883Z,90.90
2019-06-20T21:37:56.437Z,91.30
2019-06-20T21:40:24.332Z,91.30
2019-06-20T21:42:51.888Z,90.90
2019-06-20T21:45:19.459Z,91.40
2019-06-20T21:47:47.412Z,91.40
2019-06-20T21:50:14.984Z,91.30
2019-06-20T21:52:42.836Z,91.10
2019-06-20T21:55:10.699Z,91.30
2019-06-20T21:57:38.580Z,90.80
2019-06-20T22:00:08.120Z,90.80
2019-06-20T22:02:36.204Z,90.70
2019-06-20T22:05:23.443Z,90.70
2019-06-20T22:07:51.041Z,90.00
2019-06-20T22:10:18.899Z,89.30
2019-06-20T22:12:46.483Z,90.20
2019-06-20T22:15:14.324Z,90.20
2019-06-20T22:17:41.873Z,90.60
2019-06-20T22:20:10.510Z,90.80
2019-06-20T22:22:38.339Z,90.70
2019-06-20T22:25:07.846Z,91.20
2019-06-20T22:27:35.419Z,91.10
2019-06-20T22:30:04.623Z,91.00
2019-06-20T22:32:32.180Z,90.90
2019-06-20T22:34:59.754Z,91.30
2019-06-20T22:37:27.383Z,91.60
2019-06-20T22:39:55.248Z,91.30
2019-06-20T22:42:22.807Z,91.10
2019-06-20T22:44:50.681Z,91.10
2019-06-20T22:47:18.232Z,91.40
2019-06-20T22:49:46.099Z,91.20
2019-06-20T22:52:13.971Z,91.50
2019-06-20T22:54:41.851Z,91.40
2019-06-20T22:57:09.554Z,91.40
2019-06-20T22:59:37.360Z,91.40
2019-06-20T23:02:05.229Z,91.20
2019-06-20T23:04:32.788Z,91.20
2019-06-20T23:07:00.657Z,90.90
2019-06-20T23:09:28.243Z,90.90
2019-06-20T23:11:56.094Z,91.00
2019-06-20T23:14:23.944Z,91.00
2019-06-20T23:16:51.512Z,90.80
2019-06-20T23:19:19.396Z,90.70
2019-06-20T23:21:47.243Z,91.10
2019-06-20T23:24:15.127Z,90.80
2019-06-20T23:26:42.808Z,90.90
2019-06-20T23:29:22.651Z,90.60
2019-06-20T23:31:51.307Z,90.70
2019-06-20T23:34:18.892Z,91.10
2019-06-20T23:36:46.691Z,91.00
2019-06-20T23:39:14.316Z,90.70
2019-06-20T23:41:42.160Z,91.20
2019-06-20T23:44:10.039Z,90.90
2019-06-20T23:46:37.663Z,91.30
2019-06-20T23:49:05.273Z,91.30
2019-06-20T23:51:34.476Z,91.80
2019-06-20T23:54:02.394Z,92.10
2019-06-20T23:56:30.280Z,92.00
2019-06-20T23:58:58.149Z,92.10
